Time;durP1;ratioP1;P1;durP2;ratioP2;P2;SDS_P1;SDS_P2;PMS_P1;PMS_P2;Temp;Humidity;BMP_temperature;BMP_pressure;BME280_temperature;BME280_humidity;BME280_pressure;Samples;Min_cycle;Max_cycle;Signal;HPM_P1;HPM_P2
2023/03/29 00:01:20;;;;;;;3.72;1.60;;;5.50;95.90;;;;;;5036116;28;25059;-72
2023/03/29 00:03:48;;;;;;;4.88;1.42;;;5.50;96.90;;;;;;5037479;28;25133;-72
2023/03/29 00:06:20;;;;;;;5.13;1.45;;;5.50;97.70;;;;;;5036977;28;25119;-72
2023/03/29 00:08:56;;;;;;;5.18;1.60;;;5.40;98.70;;;;;;5036710;28;25087;-72
2023/03/29 00:11:24;;;;;;;8.20;2.10;;;5.40;99.90;;;;;;5036976;28;25064;-72
2023/03/29 00:13:51;;;;;;;6.55;1.60;;;5.40;99.90;;;;;;5036832;28;25107;-72
2023/03/29 00:16:19;;;;;;;8.20;1.67;;;5.30;99.90;;;;;;5036844;28;25057;-72
2023/03/29 00:18:46;;;;;;;4.57;1.70;;;5.30;99.90;;;;;;5035794;28;25100;-72
2023/03/29 00:21:13;;;;;;;8.13;2.35;;;5.30;99.90;;;;;;5037046;28;25106;-72
2023/03/29 00:23:41;;;;;;;2.90;1.33;;;5.30;99.90;;;;;;5035474;28;25081;-72
2023/03/29 00:26:08;;;;;;;6.43;1.90;;;5.30;99.90;;;;;;5035621;28;25071;-72
2023/03/29 00:28:35;;;;;;;3.90;1.65;;;5.30;99.90;;;;;;5035195;28;25069;-72
2023/03/29 00:31:14;;;;;;;6.45;1.90;;;5.30;99.90;;;;;;5035571;28;25065;-72
2023/03/29 00:33:42;;;;;;;4.95;1.83;;;5.30;99.90;;;;;;5035455;28;25065;-72
2023/03/29 00:36:11;;;;;;;7.15;2.08;;;5.30;99.90;;;;;;5036525;28;25075;-72
2023/03/29 00:38:39;;;;;;;3.90;2.22;;;5.20;99.90;;;;;;5036416;28;25108;-72
2023/03/29 00:41:10;;;;;;;3.83;1.75;;;5.20;99.90;;;;;;5036353;28;25146;-72
2023/03/29 00:43:55;;;;;;;4.20;1.55;;;5.20;99.90;;;;;;5040413;28;25124;-72
2023/03/29 00:46:24;;;;;;;5.65;2.67;;;5.20;99.90;;;;;;5038632;28;25090;-72
2023/03/29 00:48:54;;;;;;;2.60;1.40;;;5.20;99.90;;;;;;5056328;28;25147;-72
2023/03/29 00:51:23;;;;;;;3.63;1.98;;;5.10;99.90;;;;;;5038737;28;25129;-72
2023/03/29 00:53:56;;;;;;;4.53;1.70;;;5.10;99.90;;;;;;5056176;28;25061;-72
2023/03/29 00:56:35;;;;;;;4.25;1.92;;;5.10;99.90;;;;;;5056758;28;25072;-72
2023/03/29 00:59:10;;;;;;;4.80;1.90;;;5.10;99.90;;;;;;5056139;28;25116;-72
2023/03/29 01:01:52;;;;;;;5.65;1.73;;;5.10;99.90;;;;;;5038664;28;25088;-72
2023/03/29 01:04:30;;;;;;;4.60;1.70;;;5.00;99.90;;;;;;5056580;28;25054;-72
2023/03/29 01:07:12;;;;;;;5.38;1.85;;;5.00;99.90;;;;;;5056114;28;25109;-72
2023/03/29 01:09:44;;;;;;;8.15;2.35;;;5.00;99.90;;;;;;5056001;28;25061;-72
2023/03/29 01:12:19;;;;;;;3.97;1.58;;;5.00;99.90;;;;;;5056789;28;25107;-72
2023/03/29 01:14:59;;;;;;;5.63;1.75;;;5.00;99.90;;;;;;5056326;28;25062;-72
2023/03/29 01:17:30;;;;;;;5.30;2.05;;;4.90;99.90;;;;;;5055680;28;25068;-72
2023/03/29 01:20:09;;;;;;;5.18;1.50;;;4.90;99.90;;;;;;5055754;28;25069;-72
2023/03/29 01:23:07;;;;;;;6.13;1.83;;;4.90;99.90;;;;;;5038654;28;25063;-72
2023/03/29 01:25:58;;;;;;;7.90;2.22;;;4.80;99.90;;;;;;5056202;28;25054;-72
2023/03/29 01:28:38;;;;;;;6.35;2.25;;;4.80;99.90;;;;;;5056171;28;25129;-72
2023/03/29 01:31:14;;;;;;;8.43;3.25;;;4.80;99.90;;;;;;5056400;28;25088;-71
2023/03/29 01:33:53;;;;;;;;;;;4.80;99.90;;;;;;5038228;28;25070;-72
2023/03/29 01:36:26;;;;;;;7.90;2.13;;;4.80;99.90;;;;;;5056316;28;24130;-72
2023/03/29 01:38:57;;;;;;;7.10;2.92;;;4.70;99.90;;;;;;5038023;28;25114;-72
2023/03/29 01:41:38;;;;;;;5.63;2.40;;;4.70;99.90;;;;;;5057069;28;25052;-72
2023/03/29 01:44:29;;;;;;;6.13;2.33;;;4.60;99.90;;;;;;5038244;28;25073;-72
2023/03/29 01:47:10;;;;;;;6.97;2.22;;;4.60;99.90;;;;;;5037877;28;25055;-72
2023/03/29 01:49:53;;;;;;;3.60;1.88;;;4.60;99.90;;;;;;5039568;28;25078;-72
2023/03/29 01:52:34;;;;;;;6.00;2.47;;;4.60;99.90;;;;;;5039587;28;25105;-72
2023/03/29 01:55:13;;;;;;;8.20;2.05;;;4.60;99.90;;;;;;5039419;28;25075;-72
2023/03/29 01:57:43;;;;;;;4.90;2.22;;;4.50;99.90;;;;;;5038283;28;25055;-72
2023/03/29 02:00:20;;;;;;;6.50;2.40;;;4.50;99.90;;;;;;5039880;28;25144;-72
2023/03/29 02:02:51;;;;;;;4.80;2.25;;;4.50;99.90;;;;;;5039497;28;25063;-72
2023/03/29 02:05:21;;;;;;;5.13;2.53;;;4.50;99.90;;;;;;5039251;28;25067;-72
2023/03/29 02:07:50;;;;;;;4.90;2.30;;;4.50;99.90;;;;;;5038367;28;25100;-72
2023/03/29 02:10:19;;;;;;;5.25;2.22;;;4.50;99.90;;;;;;5039183;28;25100;-72
2023/03/29 02:12:46;;;;;;;4.65;2.50;;;4.50;99.90;;;;;;5038027;28;25061;-72
2023/03/29 02:15:17;;;;;;;5.40;2.30;;;4.50;99.90;;;;;;5037705;28;25150;-72
2023/03/29 02:17:46;;;;;;;5.30;1.98;;;4.40;99.90;;;;;;5039592;28;25130;-72
2023/03/29 02:20:22;;;;;;;4.93;2.35;;;4.40;99.90;;;;;;5039045;28;25075;-72
2023/03/29 02:23:00;;;;;;;5.05;2.45;;;4.30;99.90;;;;;;5038983;28;25131;-72
2023/03/29 02:25:29;;;;;;;8.30;2.58;;;4.30;99.90;;;;;;5039650;28;25055;-72
2023/03/29 02:27:57;;;;;;;7.20;2.50;;;4.30;99.90;;;;;;5037765;28;25065;-72
2023/03/29 02:30:32;;;;;;;6.10;2.83;;;4.30;99.90;;;;;;5038851;28;25057;-72
2023/03/29 02:33:33;;;;;;;10.18;2.33;;;4.20;99.90;;;;;;5038780;28;25064;-71
2023/03/29 02:36:33;;;;;;;5.68;3.15;;;4.10;99.90;;;;;;5039145;28;25117;-72
2023/03/29 02:39:06;;;;;;;7.70;2.92;;;4.10;99.90;;;;;;5036141;28;25063;-72
2023/03/29 02:41:37;;;;;;;7.65;3.22;;;4.00;99.90;;;;;;5038554;28;25133;-71
2023/03/29 02:44:07;;;;;;;4.60;2.45;;;3.90;99.90;;;;;;5045660;28;25067;-72
2023/03/29 02:46:36;;;;;;;11.68;3.95;;;3.90;99.90;;;;;;5040720;28;25127;-72
2023/03/29 02:49:04;;;;;;;5.05;2.45;;;3.80;99.90;;;;;;5040575;28;25064;-72
2023/03/29 02:51:33;;;;;;;8.40;3.33;;;3.80;99.90;;;;;;5058175;28;25056;-72
2023/03/29 02:54:17;;;;;;;6.55;3.08;;;3.70;99.90;;;;;;5040370;28;25118;-72
2023/03/29 02:56:48;;;;;;;5.32;2.85;;;3.70;99.90;;;;;;5057928;28;25138;-72
2023/03/29 02:59:18;;;;;;;5.63;2.95;;;3.70;99.90;;;;;;5058458;28;25109;-72
2023/03/29 03:01:46;;;;;;;8.20;3.33;;;3.70;99.90;;;;;;5040603;28;25106;-72
2023/03/29 03:04:13;;;;;;;6.40;3.28;;;3.70;99.90;;;;;;5040268;28;25098;-72
2023/03/29 03:06:40;;;;;;;9.63;3.70;;;3.70;99.90;;;;;;5058543;28;25071;-72
2023/03/29 03:09:08;;;;;;;7.97;3.78;;;3.70;99.90;;;;;;5057927;28;25060;-72
2023/03/29 03:11:36;;;;;;;8.55;3.40;;;3.70;99.90;;;;;;5058379;28;25072;-72
2023/03/29 03:14:04;;;;;;;7.20;3.40;;;3.70;99.90;;;;;;5058428;28;25086;-72
2023/03/29 03:16:31;;;;;;;9.43;4.03;;;3.80;99.90;;;;;;5057899;28;25117;-72
2023/03/29 03:18:59;;;;;;;7.50;3.75;;;3.70;99.90;;;;;;5057799;28;25099;-72
2023/03/29 03:21:27;;;;;;;7.68;3.72;;;3.80;99.90;;;;;;5040224;28;25043;-73
2023/03/29 03:23:54;;;;;;;10.20;4.15;;;3.70;99.90;;;;;;5056119;28;25109;-72
2023/03/29 03:26:23;;;;;;;7.53;3.45;;;3.80;99.90;;;;;;5057168;28;25060;-72
2023/03/29 03:28:51;;;;;;;10.27;4.15;;;3.80;99.90;;;;;;5057604;28;25113;-72
2023/03/29 03:31:20;;;;;;;6.38;3.95;;;3.70;99.90;;;;;;5040832;28;25091;-72
2023/03/29 03:33:47;;;;;;;13.07;4.18;;;3.80;99.90;;;;;;5039842;28;25112;-72
2023/03/29 03:36:15;;;;;;;9.48;3.72;;;3.80;99.90;;;;;;5057749;28;25071;-72
2023/03/29 03:38:42;;;;;;;10.55;4.88;;;3.80;99.90;;;;;;5057351;28;25140;-72
2023/03/29 03:41:10;;;;;;;12.00;4.40;;;3.80;99.90;;;;;;5057553;28;25087;-72
2023/03/29 03:43:40;;;;;;;6.10;3.80;;;3.80;99.90;;;;;;5057420;28;25107;-72
2023/03/29 03:46:08;;;;;;;8.23;4.03;;;3.80;99.90;;;;;;5039283;28;25080;-72
2023/03/29 03:48:36;;;;;;;10.32;4.03;;;3.70;99.90;;;;;;5055807;28;25056;-72
2023/03/29 03:51:03;;;;;;;11.88;4.45;;;3.70;99.90;;;;;;5057887;28;25061;-72
2023/03/29 03:53:31;;;;;;;9.75;4.00;;;3.70;99.90;;;;;;5057006;28;25129;-72
2023/03/29 03:56:00;;;;;;;9.18;3.63;;;3.70;99.90;;;;;;5038854;28;25072;-72
2023/03/29 03:58:28;;;;;;;9.07;4.25;;;3.70;99.90;;;;;;5057866;28;25071;-72
2023/03/29 04:00:55;;;;;;;10.10;3.35;;;3.60;99.90;;;;;;5057619;28;25090;-72
2023/03/29 04:03:23;;;;;;;9.02;4.43;;;3.70;99.90;;;;;;5038702;28;25064;-72
2023/03/29 04:05:50;;;;;;;9.38;4.60;;;3.60;99.90;;;;;;5038881;28;25088;-72
2023/03/29 04:08:18;;;;;;;11.25;4.50;;;3.70;99.90;;;;;;5056993;28;25062;-72
2023/03/29 04:10:53;;;;;;;6.57;4.13;;;3.70;99.90;;;;;;5056886;28;25060;-72
2023/03/29 04:13:21;;;;;;;10.03;3.93;;;3.70;99.90;;;;;;5057374;28;25089;-72
2023/03/29 04:15:48;;;;;;;9.52;4.43;;;3.70;99.90;;;;;;5057478;28;25096;-72
2023/03/29 04:18:16;;;;;;;8.73;4.03;;;3.70;99.90;;;;;;5056986;28;25072;-72
2023/03/29 04:20:43;;;;;;;8.43;4.15;;;3.70;99.90;;;;;;5038911;28;25065;-72
2023/03/29 04:23:11;;;;;;;8.13;4.30;;;3.70;99.90;;;;;;5038780;28;25062;-72
2023/03/29 04:25:39;;;;;;;8.05;4.65;;;3.70;99.90;;;;;;5057045;28;25079;-72
2023/03/29 04:28:08;;;;;;;9.00;4.38;;;3.80;99.90;;;;;;5056534;28;25107;-72
2023/03/29 04:30:36;;;;;;;9.48;4.65;;;3.80;99.90;;;;;;5056497;28;25071;-72
2023/03/29 04:33:03;;;;;;;5.90;3.50;;;3.80;99.90;;;;;;5056441;28;25095;-72
2023/03/29 04:35:31;;;;;;;8.52;4.38;;;3.80;99.90;;;;;;5039216;28;25146;-72
2023/03/29 04:37:58;;;;;;;9.05;4.35;;;3.80;99.90;;;;;;5056461;28;25061;-72
2023/03/29 04:40:27;;;;;;;7.70;4.15;;;3.80;99.90;;;;;;5056441;28;25052;-72
2023/03/29 04:42:59;;;;;;;10.43;4.18;;;3.80;99.90;;;;;;5056800;28;25065;-72
2023/03/29 04:45:26;;;;;;;6.85;4.32;;;3.80;99.90;;;;;;5056294;28;25078;-72
2023/03/29 04:47:58;;;;;;;9.77;4.68;;;3.90;99.90;;;;;;5038524;28;25100;-72
2023/03/29 04:50:26;;;;;;;10.40;4.28;;;3.90;99.90;;;;;;5056238;28;25143;-72
2023/03/29 04:52:52;;;;;;;6.95;4.13;;;3.90;99.90;;;;;;5056323;28;25114;-72
2023/03/29 04:55:19;;;;;;;11.43;4.65;;;3.90;99.90;;;;;;5056690;28;25057;-72
2023/03/29 04:57:46;;;;;;;9.18;4.47;;;3.90;99.90;;;;;;5056494;28;25122;-72
2023/03/29 05:00:14;;;;;;;9.18;4.18;;;4.00;99.90;;;;;;5038506;28;25065;-72
2023/03/29 05:02:42;;;;;;;9.10;4.75;;;4.00;99.90;;;;;;5054515;28;25082;-72
2023/03/29 05:05:11;;;;;;;8.60;4.38;;;4.00;99.90;;;;;;5056285;28;25100;-72
2023/03/29 05:07:39;;;;;;;10.45;5.50;;;4.00;99.90;;;;;;5056043;28;25096;-72
2023/03/29 05:10:08;;;;;;;11.52;4.55;;;4.00;99.90;;;;;;5056337;28;25079;-72
2023/03/29 05:12:35;;;;;;;9.80;4.03;;;4.00;99.90;;;;;;5038245;28;25044;-72
2023/03/29 05:15:04;;;;;;;7.18;4.03;;;4.00;99.90;;;;;;5056815;28;25073;-72
2023/03/29 05:17:31;;;;;;;7.80;4.60;;;4.10;99.90;;;;;;5042423;28;25067;-72
2023/03/29 05:20:00;;;;;;;8.73;4.07;;;4.10;99.90;;;;;;5043179;28;25137;-72
2023/03/29 05:22:28;;;;;;;9.75;4.60;;;4.10;99.90;;;;;;5060264;28;25074;-72
2023/03/29 05:24:56;;;;;;;9.38;4.43;;;4.10;99.90;;;;;;5059949;28;25099;-72
2023/03/29 05:27:23;;;;;;;12.43;4.55;;;4.10;99.90;;;;;;5042347;28;25109;-72
2023/03/29 05:29:51;;;;;;;7.50;4.35;;;4.10;99.90;;;;;;5059805;28;25062;-72
2023/03/29 05:32:18;;;;;;;10.95;5.82;;;4.20;99.90;;;;;;5059855;28;25123;-73
2023/03/29 05:34:46;;;;;;;22.60;5.15;;;4.20;99.90;;;;;;5059783;28;25116;-73
2023/03/29 05:37:14;;;;;;;10.73;4.72;;;4.20;99.90;;;;;;5059777;28;25053;-73
2023/03/29 05:39:41;;;;;;;26.25;10.23;;;4.30;99.90;;;;;;5059663;28;25084;-73
2023/03/29 05:42:12;;;;;;;8.82;4.38;;;4.30;99.90;;;;;;5060173;28;25054;-73
2023/03/29 05:44:40;;;;;;;14.23;6.00;;;4.30;99.90;;;;;;5058984;28;25081;-72
2023/03/29 05:47:08;;;;;;;13.75;6.32;;;4.40;99.90;;;;;;5060581;28;25118;-72
2023/03/29 05:49:36;;;;;;;7.13;3.88;;;4.40;99.90;;;;;;5041805;28;25134;-72
2023/03/29 05:52:05;;;;;;;11.85;3.90;;;4.40;99.90;;;;;;5059420;28;25065;-73
2023/03/29 05:54:33;;;;;;;10.48;4.28;;;4.50;99.90;;;;;;5059435;28;25076;-74
2023/03/29 05:57:00;;;;;;;6.72;4.35;;;4.50;99.90;;;;;;5060073;28;25101;-73
2023/03/29 05:59:28;;;;;;;9.32;5.38;;;4.60;99.90;;;;;;5041625;28;25060;-73
2023/03/29 06:01:56;;;;;;;10.57;5.15;;;4.70;99.90;;;;;;5059370;28;25079;-73
2023/03/29 06:04:24;;;;;;;8.10;4.32;;;4.70;99.90;;;;;;5041469;28;25057;-73
2023/03/29 06:06:51;;;;;;;8.73;3.67;;;4.80;99.90;;;;;;5059789;28;25069;-74
2023/03/29 06:09:19;;;;;;;8.02;4.38;;;4.90;99.90;;;;;;5059108;28;25155;-74
2023/03/29 06:11:46;;;;;;;7.57;4.10;;;4.90;99.90;;;;;;5044906;28;25090;-88
2023/03/29 06:14:15;;;;;;;8.23;3.70;;;5.00;99.90;;;;;;5059194;28;25057;-79
2023/03/29 06:16:42;;;;;;;7.22;4.05;;;5.10;99.90;;;;;;5059472;28;25087;-79
2023/03/29 06:19:09;;;;;;;6.13;3.33;;;5.20;99.90;;;;;;5059537;28;25116;-75
2023/03/29 06:21:37;;;;;;;8.27;3.80;;;5.30;99.90;;;;;;5059179;28;25102;-76
2023/03/29 06:24:04;;;;;;;7.32;3.58;;;5.40;99.90;;;;;;5041150;28;25096;-76
2023/03/29 06:26:31;;;;;;;6.78;3.70;;;5.50;99.90;;;;;;5040448;28;25075;-76
2023/03/29 06:28:59;;;;;;;5.85;3.28;;;5.50;99.90;;;;;;5058839;28;25055;-75
2023/03/29 06:31:28;;;;;;;6.20;3.25;;;5.60;99.90;;;;;;5058701;28;25055;-77
2023/03/29 06:33:57;;;;;;;8.15;3.78;;;5.60;99.90;;;;;;5058967;28;25107;-76
2023/03/29 06:36:24;;;;;;;9.05;3.70;;;5.60;99.90;;;;;;5058784;28;25072;-76
2023/03/29 06:38:52;;;;;;;11.65;3.50;;;5.70;99.90;;;;;;5040866;28;25137;-76
2023/03/29 06:41:20;;;;;;;7.30;3.28;;;5.70;99.90;;;;;;5058502;28;25047;-76
2023/03/29 06:43:48;;;;;;;6.82;2.92;;;5.70;99.90;;;;;;5058619;28;25080;-75
2023/03/29 06:46:15;;;;;;;6.93;2.85;;;5.70;99.90;;;;;;5040933;28;25117;-72
2023/03/29 06:48:43;;;;;;;7.60;3.35;;;5.70;99.90;;;;;;5058291;28;25076;-71
2023/03/29 06:51:11;;;;;;;8.13;3.63;;;5.80;99.90;;;;;;5058360;28;25107;-75
2023/03/29 06:53:38;;;;;;;6.93;2.30;;;5.80;99.90;;;;;;5040505;28;25059;-74
2023/03/29 06:56:07;;;;;;;6.60;2.83;;;5.90;99.90;;;;;;5058960;28;25112;-73
2023/03/29 06:58:35;;;;;;;6.05;3.38;;;5.90;99.90;;;;;;5058437;28;25086;-73
2023/03/29 07:01:03;;;;;;;6.35;3.05;;;5.90;99.90;;;;;;5058784;28;25146;-73
2023/03/29 07:03:32;;;;;;;5.20;2.85;;;6.00;99.90;;;;;;5040368;28;25113;-73
2023/03/29 07:06:08;;;;;;;4.25;2.47;;;6.10;99.90;;;;;;5058154;28;25062;-73
2023/03/29 07:08:46;;;;;;;8.88;2.75;;;6.10;99.90;;;;;;5057881;28;25081;-73
2023/03/29 07:11:15;;;;;;;7.05;3.20;;;6.20;99.90;;;;;;5058208;28;25064;-73
2023/03/29 07:13:42;;;;;;;5.93;2.92;;;6.30;99.90;;;;;;5057918;28;25062;-73
2023/03/29 07:16:11;;;;;;;7.40;3.38;;;6.40;99.90;;;;;;5058427;28;25080;-73
2023/03/29 07:18:40;;;;;;;8.82;3.40;;;6.50;99.90;;;;;;5057826;28;25089;-73
2023/03/29 07:21:09;;;;;;;4.97;2.95;;;6.60;99.90;;;;;;5057714;28;25106;-72
2023/03/29 07:23:36;;;;;;;7.70;3.20;;;6.60;99.90;;;;;;5057657;28;25070;-74
2023/03/29 07:26:06;;;;;;;6.78;3.47;;;6.70;99.90;;;;;;5039899;28;25108;-72
2023/03/29 07:28:36;;;;;;;6.95;3.08;;;6.80;99.90;;;;;;5057611;28;25068;-72
2023/03/29 07:31:09;;;;;;;7.22;3.30;;;6.80;99.90;;;;;;5040054;28;25054;-73
2023/03/29 07:33:37;;;;;;;4.63;2.67;;;6.90;99.90;;;;;;5039862;28;25107;-71
2023/03/29 07:36:05;;;;;;;6.50;3.13;;;6.90;99.90;;;;;;5058085;28;25065;-72
2023/03/29 07:38:33;;;;;;;7.78;3.30;;;7.00;99.90;;;;;;5039662;28;25060;-72
2023/03/29 07:41:04;;;;;;;4.95;2.88;;;7.10;99.90;;;;;;5057576;28;25068;-72
2023/03/29 07:43:33;;;;;;;4.85;2.65;;;7.20;99.90;;;;;;5039281;28;25098;-74
2023/03/29 07:46:05;;;;;;;7.40;3.45;;;7.30;99.90;;;;;;5057916;28;25076;-68
2023/03/29 07:48:35;;;;;;;7.05;3.05;;;7.40;99.90;;;;;;5057260;28;25073;-68
2023/03/29 07:51:03;;;;;;;4.25;2.55;;;7.40;99.90;;;;;;5057425;28;25054;-68
2023/03/29 07:53:31;;;;;;;6.28;2.90;;;7.40;99.90;;;;;;5057143;28;25158;-68
2023/03/29 07:55:59;;;;;;;8.20;2.55;;;7.50;99.90;;;;;;5057152;28;25115;-70
2023/03/29 07:58:27;;;;;;;6.93;2.90;;;7.40;99.90;;;;;;5057086;28;25125;-68
2023/03/29 08:00:54;;;;;;;8.00;2.75;;;7.40;99.90;;;;;;5040280;28;25093;-68
2023/03/29 08:03:21;;;;;;;4.47;2.67;;;7.40;99.90;;;;;;5056860;28;25114;-68
2023/03/29 08:05:48;;;;;;;5.85;2.97;;;7.40;99.90;;;;;;5056930;28;25091;-70
2023/03/29 08:08:16;;;;;;;9.00;3.10;;;7.30;99.90;;;;;;5056835;28;25102;-69
2023/03/29 08:10:43;;;;;;;5.93;3.08;;;7.30;99.90;;;;;;5056814;28;25125;-68
2023/03/29 08:13:10;;;;;;;6.30;2.72;;;7.30;99.90;;;;;;5057341;28;25120;-68
2023/03/29 08:15:38;;;;;;;5.10;2.67;;;7.40;99.90;;;;;;5057503;28;25061;-68
2023/03/29 08:18:06;;;;;;;5.22;3.00;;;7.40;99.90;;;;;;5039041;28;25139;-66
2023/03/29 08:20:34;;;;;;;5.15;2.78;;;7.50;99.90;;;;;;5038942;28;25116;-68
2023/03/29 08:23:01;;;;;;;5.20;2.60;;;7.60;99.90;;;;;;5057038;28;25059;-68
2023/03/29 08:25:29;;;;;;;6.22;3.22;;;7.60;99.90;;;;;;5039089;28;25105;-68
2023/03/29 08:27:57;;;;;;;6.38;3.20;;;7.60;99.90;;;;;;5057145;28;25092;-68
2023/03/29 08:30:24;;;;;;;5.72;2.85;;;7.70;99.90;;;;;;5056518;28;25073;-68
2023/03/29 08:32:52;;;;;;;5.13;2.85;;;7.80;99.90;;;;;;5038750;28;25045;-68
2023/03/29 08:35:20;;;;;;;7.90;2.88;;;7.80;99.90;;;;;;5038922;28;25101;-68
2023/03/29 08:37:48;;;;;;;6.78;3.10;;;7.80;99.90;;;;;;5056352;28;25052;-69
2023/03/29 08:40:22;;;;;;;4.82;2.72;;;7.90;99.90;;;;;;5056389;28;25123;-68
2023/03/29 08:42:57;;;;;;;7.10;3.42;;;7.90;99.90;;;;;;5056283;28;25061;-69
2023/03/29 08:45:35;;;;;;;7.68;2.90;;;7.90;99.90;;;;;;5056293;28;25066;-69
2023/03/29 08:48:26;;;;;;;7.85;3.67;;;7.80;99.90;;;;;;5056266;28;25112;-69
2023/03/29 08:51:18;;;;;;;5.15;3.03;;;7.80;99.90;;;;;;5056418;28;25073;-68
2023/03/29 08:54:00;;;;;;;12.18;3.20;;;7.80;99.90;;;;;;5045388;28;25062;-71
2023/03/29 08:56:31;;;;;;;5.55;3.13;;;7.80;99.90;;;;;;5056644;28;25084;-71
2023/03/29 08:58:59;;;;;;;6.45;3.22;;;7.80;99.90;;;;;;5056165;28;25067;-73
2023/03/29 09:01:33;;;;;;;10.75;3.53;;;7.90;99.90;;;;;;5056424;28;25065;-71
2023/03/29 09:04:07;;;;;;;10.00;2.90;;;8.00;99.90;;;;;;5055954;28;25166;-72
2023/03/29 09:06:35;;;;;;;7.75;3.80;;;8.10;99.90;;;;;;5056830;28;25081;-71
2023/03/29 09:09:03;;;;;;;7.35;3.22;;;8.20;99.90;;;;;;5038475;28;25076;-72
2023/03/29 09:12:06;;;;;;;5.97;3.22;;;8.20;99.90;;;;;;5038354;28;25116;-71
2023/03/29 09:14:37;;;;;;;8.82;3.78;;;8.20;99.90;;;;;;5043337;28;25137;-72
2023/03/29 09:17:17;;;;;;;6.22;3.55;;;8.30;99.90;;;;;;5056767;28;25091;-72
2023/03/29 09:19:51;;;;;;;5.95;3.35;;;8.30;99.90;;;;;;5056559;28;25081;-71
2023/03/29 09:22:33;;;;;;;6.30;3.70;;;8.30;99.90;;;;;;5056454;28;25120;-73
2023/03/29 09:25:29;;;;;;;11.25;4.50;;;8.30;99.90;;;;;;5056431;28;25153;-72
2023/03/29 09:28:19;;;;;;;7.53;3.60;;;8.30;99.90;;;;;;5056186;28;25059;-72
2023/03/29 09:31:36;;;;;;;7.22;3.28;;;8.40;99.90;;;;;;5038133;28;25063;-72
2023/03/29 09:34:13;;;;;;;7.05;4.07;;;8.40;99.90;;;;;;5013942;28;25044;-70
2023/03/29 09:36:45;;;;;;;8.00;3.72;;;8.40;99.90;;;;;;5038248;28;25083;-72
2023/03/29 09:39:14;;;;;;;6.63;3.70;;;8.40;99.90;;;;;;5056339;28;25062;-71
2023/03/29 09:42:02;;;;;;;6.05;2.85;;;8.50;99.90;;;;;;5038053;28;25059;-72
2023/03/29 09:44:45;;;;;;;7.38;4.00;;;8.60;99.90;;;;;;5055531;28;25073;-72
2023/03/29 09:47:22;;;;;;;6.68;3.53;;;8.70;99.90;;;;;;5051556;28;25090;-72
2023/03/29 09:49:59;;;;;;;4.15;2.72;;;8.80;99.90;;;;;;5056267;28;25045;-72
2023/03/29 09:52:27;;;;;;;6.07;3.30;;;9.00;99.90;;;;;;5055698;28;25102;-72
2023/03/29 09:54:54;;;;;;;6.88;2.88;;;9.10;99.90;;;;;;5037988;28;25080;-73
2023/03/29 09:57:25;;;;;;;5.72;2.70;;;9.20;99.90;;;;;;5038108;28;25061;-72
2023/03/29 09:59:53;;;;;;;5.80;3.25;;;9.30;99.90;;;;;;5054201;28;25053;-72
2023/03/29 10:02:21;;;;;;;4.93;2.83;;;9.50;99.90;;;;;;5056556;28;25057;-73
2023/03/29 10:04:59;;;;;;;8.63;3.00;;;9.60;99.90;;;;;;5059450;28;25075;-71
2023/03/29 10:07:47;;;;;;;8.90;3.22;;;9.80;99.90;;;;;;5059256;28;25061;-73
2023/03/29 10:10:31;;;;;;;6.53;2.92;;;10.00;99.90;;;;;;5059144;28;25070;-72
2023/03/29 10:13:15;;;;;;;6.05;3.63;;;10.10;99.90;;;;;;5057454;28;25045;-73
2023/03/29 10:15:43;;;;;;;6.60;2.97;;;10.30;99.90;;;;;;5041549;28;25062;-72
2023/03/29 10:18:13;;;;;;;5.72;3.13;;;10.40;99.90;;;;;;5059285;28;25090;-73
2023/03/29 10:20:41;;;;;;;7.13;3.08;;;10.70;99.90;;;;;;5058995;28;25165;-73
2023/03/29 10:23:18;;;;;;;5.05;3.08;;;10.80;99.90;;;;;;5058813;28;25130;-73
2023/03/29 10:25:46;;;;;;;7.60;3.40;;;10.90;99.90;;;;;;5041211;28;25097;-72
2023/03/29 10:28:21;;;;;;;9.68;4.38;;;11.10;99.90;;;;;;5058856;28;25138;-73
2023/03/29 10:31:02;;;;;;;9.00;4.05;;;11.20;99.90;;;;;;5058961;28;25089;-73
2023/03/29 10:33:35;;;;;;;6.20;3.15;;;11.40;99.90;;;;;;5058686;28;25144;-73
2023/03/29 10:36:06;;;;;;;6.63;3.00;;;11.40;99.90;;;;;;5058719;28;25100;-72
2023/03/29 10:38:37;;;;;;;4.75;2.58;;;11.40;99.90;;;;;;5059124;28;25107;-71
2023/03/29 10:41:10;;;;;;;5.13;2.63;;;11.50;99.90;;;;;;5058741;28;25056;-73
2023/03/29 10:43:49;;;;;;;8.68;3.38;;;11.50;99.90;;;;;;5039545;28;25073;-71
2023/03/29 10:46:23;;;;;;;9.43;3.17;;;11.60;99.90;;;;;;5040858;28;25054;-70
2023/03/29 10:48:58;;;;;;;7.70;3.13;;;11.60;99.90;;;;;;5040764;28;25228;-71
2023/03/29 10:51:33;;;;;;;8.20;2.88;;;11.60;99.90;;;;;;5058545;28;25109;-71
2023/03/29 10:54:04;;;;;;;7.68;3.03;;;11.70;99.90;;;;;;5058806;28;25070;-71
2023/03/29 10:56:40;;;;;;;5.32;3.25;;;11.80;99.90;;;;;;5058574;28;25120;-71
2023/03/29 10:59:30;;;;;;;8.35;2.60;;;11.80;99.90;;;;;;5058152;28;25077;-73
2023/03/29 11:02:17;;;;;;;8.25;2.80;;;11.80;99.90;;;;;;5058651;28;25131;-72
2023/03/29 11:05:20;;;;;;;7.38;3.13;;;11.80;99.90;;;;;;5058302;28;25055;-72
2023/03/29 11:08:27;;;;;;;8.75;4.97;;;11.80;99.90;;;;;;5040266;28;25076;-71
2023/03/29 11:11:06;;;;;;;7.63;3.50;;;11.80;99.90;;;;;;5014553;28;25150;-71
2023/03/29 11:13:33;;;;;;;9.27;4.22;;;11.70;99.90;;;;;;5057578;28;25064;-71
2023/03/29 11:16:28;;;;;;;9.82;4.90;;;11.60;99.90;;;;;;5058465;28;25106;-71
2023/03/29 11:19:20;;;;;;;7.60;4.15;;;11.70;99.90;;;;;;5058128;28;25108;-71
2023/03/29 11:22:05;;;;;;;9.88;3.13;;;11.70;99.90;;;;;;5058467;28;25059;-71
2023/03/29 11:24:47;;;;;;;10.73;3.78;;;11.70;99.90;;;;;;5057759;28;25051;-71
2023/03/29 11:27:22;;;;;;;8.27;3.80;;;11.70;99.90;;;;;;5040052;28;25065;-71
2023/03/29 11:30:41;;;;;;;8.25;3.45;;;11.70;99.90;;;;;;5056646;28;25050;-71
2023/03/29 11:33:17;;;;;;;8.55;3.58;;;11.80;99.90;;;;;;5014731;28;25347;-71
2023/03/29 11:36:06;;;;;;;5.40;3.60;;;12.00;99.90;;;;;;5039894;28;25064;-71
2023/03/29 11:38:52;;;;;;;9.88;3.00;;;12.00;99.90;;;;;;5057575;28;25091;-71
2023/03/29 11:41:26;;;;;;;;;;;11.90;99.90;;;;;;5058563;28;25129;-71
2023/03/29 11:44:22;;;;;;;12.68;4.30;;;11.80;99.90;;;;;;5057220;28;24090;-71
2023/03/29 11:46:59;;;;;;;11.52;4.75;;;11.70;99.90;;;;;;5055598;28;25110;-71
2023/03/29 11:49:37;;;;;;;6.38;4.10;;;11.60;99.90;;;;;;5039569;28;25085;-71
2023/03/29 11:52:22;;;;;;;8.52;4.57;;;11.40;99.90;;;;;;5039610;28;25099;-71
2023/03/29 11:55:02;;;;;;;10.35;3.88;;;11.20;99.90;;;;;;5057435;28;25103;-71
2023/03/29 11:57:52;;;;;;;6.22;3.83;;;11.00;99.90;;;;;;5057400;28;25063;-71
2023/03/29 12:00:45;;;;;;;10.60;4.38;;;10.80;99.90;;;;;;5057249;28;25104;-71
2023/03/29 12:03:27;;;;;;;7.88;5.28;;;10.60;99.90;;;;;;5038354;28;25134;-71
2023/03/29 12:06:11;;;;;;;7.70;3.80;;;10.50;99.90;;;;;;5057264;28;25113;-75
2023/03/29 12:09:02;;;;;;;10.98;5.78;;;10.40;99.90;;;;;;5056914;28;25082;-71
2023/03/29 12:11:44;;;;;;;16.05;8.13;;;10.40;99.90;;;;;;5039315;28;25076;-71
2023/03/29 12:14:25;;;;;;;8.55;5.25;;;10.40;99.90;;;;;;5038923;28;25117;-71
2023/03/29 12:17:09;;;;;;;13.95;5.78;;;10.40;99.90;;;;;;5057307;28;25083;-71
2023/03/29 12:20:15;;;;;;;20.02;8.02;;;10.40;99.90;;;;;;5039007;28;25091;-71
2023/03/29 12:22:50;;;;;;;9.57;5.35;;;10.50;99.90;;;;;;5016156;28;25062;-71
2023/03/29 12:25:27;;;;;;;10.17;4.73;;;10.60;99.90;;;;;;5056554;28;25103;-71
2023/03/29 12:28:21;;;;;;;9.73;4.80;;;10.60;99.90;;;;;;5056627;28;25110;-71
2023/03/29 12:31:02;;;;;;;6.88;4.43;;;10.70;99.90;;;;;;5036243;28;25177;-71
2023/03/29 12:33:57;;;;;;;10.20;5.10;;;10.60;99.90;;;;;;5057083;28;25110;-71
2023/03/29 12:36:48;;;;;;;9.30;4.68;;;10.50;99.90;;;;;;5038814;28;25080;-71
2023/03/29 12:39:18;;;;;;;6.55;4.47;;;10.50;99.90;;;;;;5057003;28;25068;-71
2023/03/29 12:41:52;;;;;;;10.20;4.63;;;10.50;99.90;;;;;;5056651;28;25092;-71
2023/03/29 12:44:23;;;;;;;11.70;5.22;;;10.50;99.90;;;;;;5055989;28;25123;-71
2023/03/29 12:47:00;;;;;;;8.80;4.60;;;10.40;99.90;;;;;;5057046;28;25082;-71
2023/03/29 12:49:37;;;;;;;9.40;4.63;;;10.40;99.90;;;;;;5056840;28;25055;-71
2023/03/29 12:52:25;;;;;;;8.30;5.00;;;10.40;99.90;;;;;;5056248;28;25075;-71
2023/03/29 12:55:03;;;;;;;9.52;4.75;;;10.40;99.90;;;;;;5057185;28;25071;-71
2023/03/29 12:57:57;;;;;;;8.80;4.80;;;10.40;99.90;;;;;;5056394;28;25067;-71
2023/03/29 13:00:42;;;;;;;10.95;5.80;;;10.30;99.90;;;;;;5056235;28;25080;-71
2023/03/29 13:03:34;;;;;;;11.43;5.10;;;10.30;99.90;;;;;;5038378;28;25078;-71
2023/03/29 13:06:04;;;;;;;12.30;6.28;;;10.20;99.90;;;;;;5056573;28;25058;-71
2023/03/29 13:08:39;;;;;;;13.38;7.75;;;10.20;99.90;;;;;;5056082;28;25086;-71
2023/03/29 13:11:26;;;;;;;10.25;6.38;;;10.10;99.90;;;;;;5056743;28;25132;-71
2023/03/29 13:13:53;;;;;;;;;;;10.00;99.90;;;;;;5057085;28;25065;-71
2023/03/29 13:16:30;;;;;;;11.60;4.65;;;10.00;99.90;;;;;;5055291;28;24107;-71
2023/03/29 13:19:20;;;;;;;10.38;5.40;;;10.00;99.90;;;;;;5056070;28;25056;-71
2023/03/29 13:22:15;;;;;;;15.85;6.68;;;10.00;99.90;;;;;;5055966;28;25098;-71
2023/03/29 13:24:43;;;;;;;15.55;5.38;;;10.00;99.90;;;;;;5038259;28;25066;-71
2023/03/29 13:27:41;;;;;;;10.35;5.38;;;9.90;99.90;;;;;;5038469;28;25069;-71